首页
METAR-TAF:

METAR-TAF

机场 :

Mackenzie, 不列颠哥伦比亚, 加拿大

纬度: 55-18N, 经度: 123-08W, 海拔: 695米

当前天气观测

该预报发布于12分钟前的20:00 UTC
风速5节,风向多变
温度 13°C
湿度 58%
气压 1020 hPa
能見度: 14.5公里
多云层高于7500英尺

METAR: CYZY 242000Z AUTO VRB05KT 9SM BKN075 13/05 A3012 RMK SLP219 DENSITY ALT 2300FT

时间: 13:12 (20:12 UTC)

预报

该预报发布于1小时和34分钟前的18:38 UTC
预报有效从24日的 19点(UTC)到 25日的 07点(UTC)
风速3节,风向多变
能見度: 10公里
散云层高于22000英尺
成为
从 24日的 20点(UTC)到 24日的 22点(UTC)
风速8节,风向西南

TAF: CYZY 241838Z 2419/2507 VRB03KT P6SM SCT220 BECMG 2420/2422 22008KT RMK FCST BASED ON AUTO OBS. NXT FCST BY 250100Z

超过4000个机场的气象观测和天气预报(METAR&TAF报告)。

可查询的气象台以黄色和红色小点在地图上表示。

将鼠标移到小点上方,可查看气象台名称。

然后点击查看天气观测和预报。

如需切换地图:点击带黑十字的绿色按钮放大地图;点击带横线的绿色按钮缩小地图;或者点击绿色箭头查看邻近地区的地图。


METAR-TAF: